createdAt,value
2022-12-03T11:18:02.805Z,5.07
2022-12-03T11:20:29.463Z,9.90
2022-12-03T11:22:56.100Z,10.25
2022-12-03T11:25:22.962Z,12.55
2022-12-03T11:27:49.585Z,12.03
2022-12-03T11:30:16.313Z,22.60
2022-12-03T11:32:42.960Z,25.42
2022-12-03T11:35:09.592Z,22.48
2022-12-03T11:37:36.245Z,19.50
2022-12-03T11:40:03.101Z,17.97
2022-12-03T11:42:29.734Z,19.58
2022-12-03T11:44:56.402Z,16.95
2022-12-03T11:47:23.035Z,18.00
2022-12-03T11:49:49.911Z,16.65
2022-12-03T11:52:16.585Z,16.57
2022-12-03T11:54:43.436Z,15.90
2022-12-03T11:57:10.092Z,16.17
2022-12-03T11:59:36.750Z,16.45
2022-12-03T12:02:03.403Z,16.92
2022-12-03T12:04:30.298Z,17.00
2022-12-03T12:06:57.286Z,16.33
2022-12-03T12:09:24.139Z,17.67
2022-12-03T12:11:50.761Z,13.77
2022-12-03T12:14:17.395Z,13.55
2022-12-03T12:16:44.123Z,14.30
2022-12-03T12:19:11.123Z,13.88
2022-12-03T12:21:37.783Z,13.98
2022-12-03T12:24:04.416Z,14.50
2022-12-03T12:26:31.058Z,14.02
2022-12-03T12:28:57.707Z,13.77
2022-12-03T12:31:24.380Z,13.98
2022-12-03T12:33:51.051Z,13.40
2022-12-03T12:36:17.697Z,14.02
2022-12-03T12:38:44.551Z,13.15
2022-12-03T12:41:11.188Z,12.50
2022-12-03T12:43:37.845Z,13.75
2022-12-03T12:46:25.029Z,12.48
2022-12-03T12:48:52.524Z,12.15
2022-12-03T12:51:21.905Z,11.63
2022-12-03T12:53:48.531Z,11.57
2022-12-03T12:56:16.158Z,11.13
2022-12-03T12:58:42.809Z,11.45
2022-12-03T13:01:09.540Z,10.75
2022-12-03T13:03:36.202Z,11.25
2022-12-03T13:06:02.849Z,10.37
2022-12-03T13:08:29.526Z,11.90
2022-12-03T13:10:56.192Z,9.65
2022-12-03T13:13:23.056Z,10.77
2022-12-03T13:15:49.720Z,10.68
2022-12-03T13:18:16.354Z,10.87
2022-12-03T13:20:42.978Z,10.18
2022-12-03T13:23:09.629Z,9.55
2022-12-03T13:26:00.673Z,11.13
2022-12-03T13:28:22.903Z,9.85
2022-12-03T13:30:49.528Z,9.27
2022-12-03T13:33:16.187Z,10.02
2022-12-03T13:35:42.854Z,10.30
2022-12-03T13:38:09.487Z,9.45
2022-12-03T13:40:36.129Z,9.60
2022-12-03T13:43:02.779Z,9.77
2022-12-03T13:45:29.695Z,9.52
2022-12-03T13:47:56.346Z,10.05
2022-12-03T13:50:23.199Z,8.73
2022-12-03T13:52:49.853Z,9.15
2022-12-03T13:55:16.774Z,8.40
2022-12-03T13:57:43.432Z,8.55
2022-12-03T14:00:10.390Z,8.30
2022-12-03T14:02:37.165Z,8.27
2022-12-03T14:05:03.873Z,8.02
2022-12-03T14:07:30.536Z,7.83
2022-12-03T14:09:57.443Z,7.68
2022-12-03T14:12:24.487Z,9.02
2022-12-03T14:14:51.111Z,8.93
2022-12-03T14:17:17.808Z,9.23
2022-12-03T14:19:44.540Z,9.10
2022-12-03T14:22:11.391Z,8.55
2022-12-03T14:24:38.018Z,8.45
2022-12-03T14:27:04.875Z,9.82
2022-12-03T14:29:31.515Z,8.63
2022-12-03T14:31:58.230Z,8.00
2022-12-03T14:34:24.950Z,8.30
2022-12-03T14:36:51.797Z,8.93
2022-12-03T14:39:18.421Z,8.48
2022-12-03T14:41:45.076Z,9.38
2022-12-03T14:44:11.952Z,9.20
2022-12-03T14:46:38.573Z,9.68
2022-12-03T14:49:05.203Z,9.35
2022-12-03T14:51:31.840Z,9.05
2022-12-03T14:53:58.675Z,8.15
2022-12-03T14:56:25.333Z,8.50
2022-12-03T14:58:51.980Z,8.90
2022-12-03T15:01:18.658Z,8.70
2022-12-03T15:03:45.524Z,8.80
2022-12-03T15:06:12.145Z,9.13
2022-12-03T15:08:38.801Z,9.50
2022-12-03T15:11:05.676Z,9.32
2022-12-03T15:13:32.339Z,9.65
2022-12-03T15:15:58.970Z,8.90
2022-12-03T15:18:25.651Z,8.55
2022-12-03T15:20:52.298Z,8.73
2022-12-03T15:23:18.944Z,8.45
2022-12-03T15:25:45.570Z,8.07
2022-12-03T15:28:12.415Z,8.02
2022-12-03T15:30:39.067Z,8.63
2022-12-03T15:33:05.708Z,8.47
2022-12-03T15:35:32.359Z,8.02
2022-12-03T15:37:59.214Z,7.82
2022-12-03T15:40:25.846Z,7.43
2022-12-03T15:42:52.466Z,8.00
2022-12-03T15:45:19.127Z,8.20
2022-12-03T15:47:45.979Z,7.82
2022-12-03T15:50:12.846Z,8.23
2022-12-03T15:52:39.494Z,7.38
2022-12-03T15:55:06.151Z,6.90
2022-12-03T15:57:32.817Z,7.33
2022-12-03T15:59:59.666Z,7.28
2022-12-03T16:02:26.802Z,6.70
2022-12-03T16:04:53.520Z,6.70
2022-12-03T16:07:20.364Z,7.10
2022-12-03T16:09:46.992Z,6.93
2022-12-03T16:12:13.828Z,7.05
2022-12-03T16:14:40.692Z,7.07
2022-12-03T16:17:07.532Z,6.68
2022-12-03T16:19:34.148Z,7.10
2022-12-03T16:22:00.996Z,6.47
2022-12-03T16:24:27.646Z,6.20
2022-12-03T16:26:54.303Z,5.47
2022-12-03T16:29:20.939Z,6.03
2022-12-03T16:31:47.579Z,7.13
2022-12-03T16:34:14.799Z,7.27
2022-12-03T16:36:41.463Z,6.18
2022-12-03T16:39:08.330Z,6.68
2022-12-03T16:41:34.962Z,6.07
2022-12-03T16:44:01.795Z,6.60
2022-12-03T16:46:28.485Z,6.50
2022-12-03T16:48:55.864Z,6.50
2022-12-03T16:51:22.515Z,6.32
2022-12-03T16:53:49.143Z,5.70
2022-12-03T16:56:18.434Z,6.70
2022-12-03T16:58:45.061Z,6.77
2022-12-03T17:01:11.770Z,6.57
2022-12-03T17:03:38.445Z,6.85
2022-12-03T17:06:05.916Z,6.15
2022-12-03T17:08:32.542Z,5.95
2022-12-03T17:10:59.259Z,6.33
2022-12-03T17:13:25.955Z,6.22
2022-12-03T17:15:52.674Z,5.78
2022-12-03T17:18:19.399Z,6.40
2022-12-03T17:20:46.037Z,6.50
2022-12-03T17:23:12.667Z,6.23
2022-12-03T17:25:39.286Z,6.40
2022-12-03T17:28:05.905Z,6.63
2022-12-03T17:30:32.748Z,6.03
2022-12-03T17:32:59.486Z,6.18
2022-12-03T17:35:26.124Z,6.40
2022-12-03T17:37:52.996Z,6.35
2022-12-03T17:40:19.662Z,5.72
2022-12-03T17:42:46.330Z,6.05
2022-12-03T17:45:13.205Z,6.50
2022-12-03T17:47:39.829Z,5.70
2022-12-03T17:50:06.699Z,5.90
2022-12-03T17:52:33.351Z,5.93
2022-12-03T17:55:26.127Z,5.75
2022-12-03T17:57:46.843Z,6.13
2022-12-03T18:00:13.687Z,6.07
2022-12-03T18:02:40.349Z,6.05
2022-12-03T18:05:06.977Z,6.22
2022-12-03T18:07:33.662Z,7.60
2022-12-03T18:10:00.343Z,7.22
2022-12-03T18:12:26.997Z,6.00
2022-12-03T18:14:53.622Z,6.10
2022-12-03T18:17:20.473Z,6.97
2022-12-03T18:19:47.123Z,6.28
2022-12-03T18:22:13.996Z,6.25
2022-12-03T18:24:40.638Z,5.57
2022-12-03T18:27:07.507Z,5.80
2022-12-03T18:29:34.139Z,5.40
2022-12-03T18:32:00.806Z,5.55
2022-12-03T18:34:27.494Z,5.63
2022-12-03T18:36:54.134Z,5.83
2022-12-03T18:39:20.974Z,6.28
2022-12-03T18:41:47.824Z,5.38
2022-12-03T18:44:14.453Z,5.68
2022-12-03T18:46:56.337Z,4.80
2022-12-03T18:49:23.015Z,5.67
2022-12-03T18:51:54.323Z,4.97
2022-12-03T18:54:24.112Z,5.70
2022-12-03T18:56:50.952Z,4.72
2022-12-03T18:59:17.570Z,4.95
2022-12-03T19:01:44.228Z,4.77
2022-12-03T19:04:10.911Z,5.10
2022-12-03T19:06:37.771Z,5.65
2022-12-03T19:09:04.433Z,4.93
2022-12-03T19:11:31.070Z,4.75
2022-12-03T19:13:57.733Z,5.17
2022-12-03T19:16:24.399Z,5.20
2022-12-03T19:18:51.355Z,5.57
2022-12-03T19:21:17.985Z,5.35
2022-12-03T19:24:04.300Z,5.75
2022-12-03T19:26:31.219Z,5.60
2022-12-03T19:28:57.897Z,5.97
2022-12-03T19:31:24.594Z,5.10
2022-12-03T19:33:51.512Z,5.07
2022-12-03T19:36:18.150Z,4.75
2022-12-03T19:38:44.792Z,5.23
2022-12-03T19:41:11.433Z,5.20
2022-12-03T19:43:38.291Z,5.00
2022-12-03T19:46:05.023Z,4.95
2022-12-03T19:48:31.817Z,5.30
2022-12-03T19:51:26.172Z,5.00
2022-12-03T19:53:45.533Z,5.25
2022-12-03T19:56:12.382Z,4.93
2022-12-03T19:58:39.104Z,5.60
2022-12-03T20:01:05.843Z,5.43
2022-12-03T20:03:32.654Z,5.03
2022-12-03T20:05:59.458Z,5.18
2022-12-03T20:08:26.340Z,5.13
2022-12-03T20:10:53.299Z,5.40
2022-12-03T20:13:20.169Z,5.13
2022-12-03T20:15:46.996Z,5.30
2022-12-03T20:18:13.874Z,4.65
2022-12-03T20:20:40.697Z,5.38
2022-12-03T20:23:07.744Z,5.38
2022-12-03T20:25:34.434Z,5.47
2022-12-03T20:28:01.078Z,4.97
2022-12-03T20:30:27.744Z,5.00
2022-12-03T20:32:54.403Z,4.38
2022-12-03T20:35:21.051Z,4.93
2022-12-03T20:37:47.898Z,4.95
2022-12-03T20:40:14.542Z,4.47
2022-12-03T20:42:41.382Z,4.53
2022-12-03T20:45:08.007Z,4.47
2022-12-03T20:47:34.888Z,4.10
2022-12-03T20:50:01.768Z,4.28
2022-12-03T20:52:28.426Z,3.77
2022-12-03T20:54:55.082Z,4.18
2022-12-03T20:57:21.712Z,4.32
2022-12-03T20:59:48.552Z,4.20
2022-12-03T21:02:15.271Z,4.00
2022-12-03T21:04:42.196Z,4.23
2022-12-03T21:07:08.852Z,4.15
2022-12-03T21:09:35.713Z,4.03
2022-12-03T21:12:02.357Z,3.58
2022-12-03T21:14:29.009Z,4.05
2022-12-03T21:17:11.080Z,3.80
2022-12-03T21:19:38.004Z,4.00
2022-12-03T21:22:04.630Z,3.80
2022-12-03T21:24:31.477Z,4.15
2022-12-03T21:26:58.100Z,4.20
2022-12-03T21:29:24.727Z,4.07
2022-12-03T21:31:51.387Z,3.88
2022-12-03T21:34:18.253Z,3.80
2022-12-03T21:36:45.119Z,4.18
2022-12-03T21:39:11.769Z,3.83
2022-12-03T21:41:38.655Z,3.97
2022-12-03T21:44:05.340Z,4.07
2022-12-03T21:47:10.775Z,3.55
2022-12-03T21:49:19.051Z,4.00
2022-12-03T21:51:45.700Z,3.60
2022-12-03T21:54:12.873Z,4.07
2022-12-03T21:56:39.533Z,3.60
2022-12-03T21:59:06.411Z,3.33
2022-12-03T22:01:33.185Z,3.60
2022-12-03T22:04:00.080Z,3.60
2022-12-03T22:06:26.741Z,3.10
2022-12-03T22:08:53.399Z,3.85
2022-12-03T22:11:20.057Z,3.22
2022-12-03T22:13:46.718Z,3.30
2022-12-03T22:16:13.431Z,3.67
2022-12-03T22:18:40.882Z,3.50
2022-12-03T22:21:07.523Z,3.65
2022-12-03T22:23:34.373Z,3.13
2022-12-03T22:26:01.022Z,3.90
2022-12-03T22:28:27.686Z,3.50
2022-12-03T22:30:54.397Z,3.40
2022-12-03T22:33:21.072Z,3.60
2022-12-03T22:35:47.731Z,3.75
2022-12-03T22:38:14.578Z,3.42
2022-12-03T22:40:41.241Z,2.95
2022-12-03T22:43:07.881Z,3.20
2022-12-03T22:45:34.504Z,3.22
2022-12-03T22:48:01.127Z,3.00
2022-12-03T22:50:27.759Z,3.00
2022-12-03T22:52:54.407Z,3.03
2022-12-03T22:55:21.033Z,3.30
2022-12-03T22:57:47.689Z,3.58
2022-12-03T23:00:14.441Z,3.40
2022-12-03T23:02:41.223Z,3.13
2022-12-03T23:05:07.878Z,3.20
2022-12-03T23:07:34.817Z,3.30
2022-12-03T23:10:01.496Z,3.28
2022-12-03T23:12:28.152Z,3.13
2022-12-03T23:14:54.790Z,3.13
2022-12-03T23:17:21.950Z,3.53
2022-12-03T23:19:48.798Z,3.07
2022-12-03T23:22:15.697Z,3.45
2022-12-03T23:24:42.331Z,3.33
2022-12-03T23:27:08.990Z,3.42
2022-12-03T23:29:35.870Z,2.92
2022-12-03T23:32:02.744Z,2.93
2022-12-03T23:34:29.466Z,3.30
2022-12-03T23:36:56.344Z,3.25
2022-12-03T23:39:22.981Z,3.58
2022-12-03T23:41:49.620Z,3.40
2022-12-03T23:44:16.323Z,3.30
2022-12-03T23:46:43.016Z,3.38
2022-12-03T23:49:09.986Z,3.50
2022-12-03T23:51:36.857Z,3.28
2022-12-03T23:54:03.495Z,3.38
2022-12-03T23:56:30.126Z,3.37
2022-12-03T23:58:56.768Z,3.35
